EDDF/FRA METAR and TAF weather

Enter ICAO airport designator
Station Type Date Time Source
EDDF METAR 2022/05/24 12:20 UTC NOAA

EDDF 241220Z 26017KT 230V300 9999 FEW040CB 20/07 Q1008 NOSIG


Station Type Date Time Source
EDDF Decoded METAR 2022/05/24 12:20 UTC NOAA

Frankfurt / M-Flughafen, Germany (EDDF) 50-03N 008-36E 113M
May 24, 2022 - 08:20 AM EDT / 2022.05.24 1220 UTC
Wind: from the W (260 degrees) at 20 MPH (17 KT) (direction variable):0
Visibility: greater than 7 mile(s):0
Sky conditions: mostly clear
Weather: Cumulonimbus clouds observed
Temperature: 68 F (20 C)
Dew Point: 44 F (7 C)
Relative Humidity: 42%
Pressure (altimeter): 29.77 in. Hg (1008 hPa)
ob: EDDF 241220Z 26017KT 230V300 9999 FEW040CB 20/07 Q1008 NOSIG
cycle: 12

Station Type Date Time Source
EDDF TAF 2022/05/24 12:28 UTC NOAA

TAF EDDF 241100Z 2412/2518 25013KT 9999 FEW040
TEMPO 2412/2415 27020G30KT BKN040
BECMG 2418/2421 24004KT
BECMG 2509/2511 23011KT
TEMPO 2511/2516 24012G25KT

Example: see airport list